Time;durP1;ratioP1;P1;durP2;ratioP2;P2;SDS_P1;SDS_P2;PMS_P1;PMS_P2;Temp;Humidity;BMP_temperature;BMP_pressure;BME280_temperature;BME280_humidity;BME280_pressure;Samples;Min_cycle;Max_cycle;Signal;HPM_P1;HPM_P2
2021/12/01 00:01:17;;;;;;;1.27;1.17;;;;;;;-10.47;91.19;98668.03;5012755;28;20073;-64
2021/12/01 00:03:44;;;;;;;1.27;1.20;;;;;;;-10.47;90.49;98673.06;5012757;28;20052;-63
2021/12/01 00:06:12;;;;;;;1.67;1.58;;;;;;;-10.40;90.28;98661.28;5012728;28;20145;-63
2021/12/01 00:08:39;;;;;;;1.52;1.45;;;;;;;-10.52;90.60;98668.03;5012883;28;20476;-66
2021/12/01 00:11:05;;;;;;;;;;;;;;;-10.52;90.77;98660.50;5013139;28;20046;-65
2021/12/01 00:13:34;;;;;;;1.98;1.65;;;;;;;-10.49;90.78;98668.88;5012643;28;20043;-64
2021/12/01 00:16:02;;;;;;;0.80;0.80;;;;;;;-10.46;90.88;98672.19;5013058;28;20089;-63
2021/12/01 00:18:30;;;;;;;2.35;1.88;;;;;;;-10.51;90.98;98666.34;5012460;28;20132;-63
2021/12/01 00:20:58;;;;;;;1.55;1.45;;;;;;;-10.54;91.22;98664.69;5012825;28;20133;-65
2021/12/01 00:23:26;;;;;;;1.65;1.50;;;;;;;-10.46;91.00;98656.28;5012396;28;20046;-66
2021/12/01 00:25:53;;;;;;;3.00;1.95;;;;;;;-10.59;90.81;98655.50;5012913;28;20053;-64
2021/12/01 00:28:21;;;;;;;2.15;1.70;;;;;;;-10.64;91.95;98662.22;5012446;28;20049;-64
2021/12/01 00:30:48;;;;;;;1.65;1.00;;;;;;;-10.43;90.38;98659.59;5012013;28;20084;-62
2021/12/01 00:33:22;;;;;;;1.90;1.50;;;;;;;-10.50;90.47;98647.09;5012494;28;20068;-63
2021/12/01 00:35:51;;;;;;;2.40;1.40;;;;;;;-10.56;90.83;98653.81;5012213;28;20488;-64
2021/12/01 00:38:19;;;;;;;1.30;1.20;;;;;;;-10.47;90.42;98647.91;5012167;28;20133;-64
2021/12/01 00:40:47;;;;;;;1.90;1.20;;;;;;;-10.65;91.15;98642.97;5011961;28;20057;-63
2021/12/01 00:43:17;;;;;;;1.60;1.50;;;;;;;-10.51;91.21;98646.25;5012065;28;20050;-64
2021/12/01 00:45:49;;;;;;;2.00;1.80;;;;;;;-10.66;91.44;98652.19;5012345;28;20052;-65
2021/12/01 00:48:17;;;;;;;2.28;1.88;;;;;;;-10.58;90.61;98647.13;5012266;28;20482;-65
2021/12/01 00:50:46;;;;;;;3.55;1.83;;;;;;;-10.48;90.59;98642.88;5012461;28;20070;-65
2021/12/01 00:53:14;;;;;;;3.40;1.80;;;;;;;-10.58;90.62;98654.66;5012271;28;20081;-64
2021/12/01 00:55:43;;;;;;;1.00;1.00;;;;;;;-10.49;90.51;98644.56;5012939;28;20144;-62
2021/12/01 00:58:11;;;;;;;1.00;1.00;;;;;;;-10.45;90.38;98650.41;5016284;28;20057;-64
2021/12/01 01:00:38;;;;;;;1.45;1.35;;;;;;;-10.43;89.73;98656.28;5016107;28;20559;-63
2021/12/01 01:03:05;;;;;;;;;;;;;;;-10.64;89.66;98649.66;5016365;28;20045;-64
2021/12/01 01:05:32;;;;;;;2.13;1.55;;;;;;;-10.60;90.68;98653.84;5016282;28;20011;-64
2021/12/01 01:07:59;;;;;;;1.40;1.20;;;;;;;-10.48;89.85;98653.78;5016027;28;20069;-64
2021/12/01 01:10:45;;;;;;;1.58;1.38;;;;;;;-10.58;90.12;98642.09;5016365;28;20132;-64
2021/12/01 01:16:23;;;;;;;1.98;1.73;;;;;;;-10.58;90.50;98644.63;5015877;28;20469;-64
2021/12/01 01:18:53;;;;;;;1.00;1.00;;;;;;;-10.58;90.33;98644.63;5015655;28;20408;-64
2021/12/01 01:21:21;;;;;;;1.30;1.20;;;;;;;-10.56;89.47;98650.44;5015938;28;20107;-64
2021/12/01 01:23:48;;;;;;;1.50;1.40;;;;;;;-10.64;90.44;98637.09;5016275;28;20100;-64
2021/12/01 01:26:18;;;;;;;2.50;1.88;;;;;;;-10.71;90.50;98648.84;5015739;28;20139;-64
2021/12/01 01:28:45;;;;;;;2.08;1.63;;;;;;;-10.76;90.68;98653.06;5015710;28;20129;-64
2021/12/01 01:31:13;;;;;;;;;;;;;;;-10.82;90.98;98638.81;5015763;28;20046;-63
2021/12/01 01:33:40;;;;;;;0.95;0.95;;;;;;;-10.67;91.16;98644.63;5015660;28;20311;-64
2021/12/01 01:36:08;;;;;;;;;;;;;;;-10.74;91.01;98638.78;5015901;28;20110;-64
2021/12/01 01:38:35;;;;;;;1.25;1.20;;;;;;;-10.92;92.23;98642.19;5015480;28;20287;-64
2021/12/01 01:41:04;;;;;;;2.20;1.30;;;;;;;-10.64;90.64;98644.63;5015400;28;20048;-63
2021/12/01 01:43:33;;;;;;;1.20;1.10;;;;;;;-10.60;90.48;98646.28;5015238;28;20136;-64
2021/12/01 01:46:00;;;;;;;2.03;1.60;;;;;;;-10.70;90.56;98639.63;5015178;28;20476;-64
2021/12/01 01:48:31;;;;;;;4.10;1.73;;;;;;;-10.59;90.32;98647.94;5015305;28;20141;-62
2021/12/01 01:50:59;;;;;;;2.83;1.67;;;;;;;-10.65;90.23;98640.44;5015522;28;20084;-64
2021/12/01 01:53:27;;;;;;;3.45;1.58;;;;;;;-10.79;91.65;98650.53;5014742;28;20141;-64
2021/12/01 01:55:56;;;;;;;1.20;1.10;;;;;;;-10.58;90.97;98647.13;5014796;28;20373;-65
2021/12/01 01:58:24;;;;;;;1.88;1.63;;;;;;;-10.72;90.97;98651.34;5014753;28;20384;-64
2021/12/01 02:01:01;;;;;;;;;;;;;;;-10.57;90.79;98646.28;5015331;28;20399;-64
2021/12/01 02:03:28;;;;;;;2.13;1.30;;;;;;;-10.58;91.45;98654.66;5015064;28;20359;-62
2021/12/01 02:05:56;;;;;;;2.63;1.70;;;;;;;-10.70;90.86;98649.69;5014959;28;20141;-63
2021/12/01 02:08:29;;;;;;;3.97;1.50;;;;;;;-10.57;91.00;98646.28;5013647;28;20080;-63
2021/12/01 02:10:57;;;;;;;1.15;1.02;;;;;;;-10.59;91.13;98647.94;5014809;28;20049;-64
2021/12/01 02:13:25;;;;;;;2.42;1.65;;;;;;;-10.69;90.92;98643.81;5014705;28;20053;-64
2021/12/01 02:15:55;;;;;;;1.70;1.60;;;;;;;-10.63;90.77;98642.13;5014840;28;20129;-65
2021/12/01 02:18:23;;;;;;;1.08;1.08;;;;;;;-10.57;90.44;98647.09;5014842;28;20076;-65
2021/12/01 02:21:04;;;;;;;;;;;;;;;-10.69;90.61;98641.28;5014968;28;20133;-65
2021/12/01 02:23:33;;;;;;;1.65;1.50;;;;;;;-10.71;91.33;98641.31;5014448;28;19968;-65
2021/12/01 02:26:00;;;;;;;1.30;1.20;;;;;;;-10.60;91.21;98641.28;5015136;28;20140;-63
2021/12/01 02:28:27;;;;;;;1.80;1.35;;;;;;;-10.63;90.96;98636.25;5014550;28;20519;-64
2021/12/01 02:30:54;;;;;;;1.13;1.02;;;;;;;-10.58;91.27;98635.41;5014496;28;20069;-65
2021/12/01 02:33:21;;;;;;;1.77;1.63;;;;;;;-10.47;90.70;98642.88;5014390;28;20474;-64
2021/12/01 02:35:48;;;;;;;1.90;1.70;;;;;;;-10.50;90.63;98639.56;5014397;28;20478;-66
2021/12/01 02:38:16;;;;;;;;;;;;;;;-10.71;90.27;98643.81;5014701;28;20145;-64
2021/12/01 02:40:44;;;;;;;2.33;1.60;;;;;;;-10.57;90.68;98644.59;5014389;28;20375;-64
2021/12/01 02:43:11;;;;;;;1.20;1.10;;;;;;;-10.54;90.51;98647.09;5014310;28;20539;-65
2021/12/01 02:45:39;;;;;;;;;;;;;;;-10.69;90.66;98644.63;5014744;28;20141;-64
2021/12/01 02:48:06;;;;;;;1.67;1.58;;;;;;;-10.61;90.77;98644.59;5014238;28;20024;-64
2021/12/01 02:50:33;;;;;;;1.52;1.42;;;;;;;-10.56;90.33;98643.78;5013982;28;20499;-66
2021/12/01 02:53:00;;;;;;;1.83;1.73;;;;;;;-10.66;90.97;98631.22;5014143;28;20471;-65
2021/12/01 02:55:32;;;;;;;1.50;1.40;;;;;;;-10.80;91.62;98644.66;5013751;28;20058;-65
2021/12/01 02:58:00;;;;;;;1.60;1.30;;;;;;;-10.73;91.13;98639.66;5013856;28;20567;-65
2021/12/01 03:00:27;;;;;;;1.42;1.27;;;;;;;-10.56;90.13;98642.91;5013915;28;20077;-65
2021/12/01 03:02:56;;;;;;;2.58;1.67;;;;;;;-10.74;90.64;98633.75;5013861;28;20045;-64
2021/12/01 03:05:24;;;;;;;1.67;1.58;;;;;;;-10.79;91.40;98643.00;5013825;28;20050;-63
2021/12/01 03:07:53;;;;;;;0.85;0.85;;;;;;;-10.75;91.40;98629.59;5013651;28;20057;-65
2021/12/01 03:10:20;;;;;;;1.55;1.40;;;;;;;-10.71;91.30;98633.78;5013737;28;20081;-65
2021/12/01 03:12:48;;;;;;;1.42;1.33;;;;;;;-10.65;90.87;98632.91;5013507;28;20100;-64
2021/12/01 03:15:19;;;;;;;1.50;1.40;;;;;;;-10.77;91.08;98628.75;5013750;28;20133;-66
2021/12/01 03:17:46;;;;;;;1.63;1.42;;;;;;;-10.68;90.38;98635.44;5014056;28;20068;-65
2021/12/01 03:20:15;;;;;;;1.27;1.17;;;;;;;-10.69;90.54;98631.22;5013521;28;20072;-64
2021/12/01 03:22:42;;;;;;;1.67;1.20;;;;;;;-10.76;90.90;98625.41;5013510;28;20054;-63
2021/12/01 03:25:12;;;;;;;3.65;1.52;;;;;;;-10.59;90.53;98620.31;5014847;28;20064;-65
2021/12/01 03:27:39;;;;;;;1.45;1.35;;;;;;;-10.59;90.87;98627.84;5014453;28;20128;-65
2021/12/01 03:30:10;;;;;;;1.38;1.27;;;;;;;-10.63;90.05;98627.03;5013740;28;20088;-64
2021/12/01 03:32:37;;;;;;;2.88;1.52;;;;;;;-10.67;90.47;98620.34;5013997;28;20536;-64
2021/12/01 03:35:06;;;;;;;1.73;1.40;;;;;;;-10.72;90.25;98617.00;5013467;28;20046;-64
2021/12/01 03:37:33;;;;;;;0.90;0.90;;;;;;;-10.64;90.50;98627.03;5013391;28;20073;-64
2021/12/01 03:40:00;;;;;;;1.15;1.08;;;;;;;-10.67;90.56;98622.03;5013031;28;20046;-62
2021/12/01 03:42:27;;;;;;;;;;;;;;;-10.67;90.53;98624.53;5013251;28;20136;-63
2021/12/01 03:44:56;;;;;;;1.77;1.08;;;;;;;-10.62;90.25;98623.66;5013335;28;19957;-64
2021/12/01 03:47:24;;;;;;;1.60;1.50;;;;;;;-10.66;90.74;98623.69;5013006;28;20046;-63
2021/12/01 03:49:51;;;;;;;4.15;1.50;;;;;;;-10.97;91.17;98632.19;5012941;28;20140;-64
2021/12/01 03:52:18;;;;;;;1.13;1.10;;;;;;;-10.73;90.26;98634.63;5012691;28;20473;-64
2021/12/01 03:54:47;;;;;;;1.92;1.52;;;;;;;-10.67;90.85;98639.63;5012753;28;20064;-64
2021/12/01 03:57:15;;;;;;;1.27;1.23;;;;;;;-10.61;90.32;98629.53;5013035;28;20140;-64
2021/12/01 03:59:42;;;;;;;1.63;1.50;;;;;;;-10.81;90.34;98624.59;5013052;28;20153;-64
2021/12/01 04:02:09;;;;;;;0.95;0.95;;;;;;;-10.66;90.31;98623.69;5012605;28;20468;-63
2021/12/01 04:04:38;;;;;;;1.95;1.45;;;;;;;-10.82;90.41;98617.88;5012865;28;20046;-64
2021/12/01 04:07:05;;;;;;;1.10;1.10;;;;;;;-10.73;90.53;98612.00;5012667;28;20116;-63
2021/12/01 04:09:33;;;;;;;;;;;;;;;-10.84;90.55;98619.56;5013130;28;20133;-64
2021/12/01 04:12:00;;;;;;;1.30;1.20;;;;;;;-10.89;91.29;98608.69;5012495;28;20012;-64
2021/12/01 04:14:27;;;;;;;2.67;1.85;;;;;;;-10.90;90.53;98612.06;5012953;28;20128;-64
2021/12/01 04:16:54;;;;;;;;;;;;;;;-10.79;90.57;98612.84;5013493;28;20136;-64
2021/12/01 04:19:21;;;;;;;1.13;0.93;;;;;;;-10.73;90.09;98615.34;5012778;28;19921;-64
2021/12/01 04:21:49;;;;;;;1.48;1.38;;;;;;;-10.77;90.39;98617.00;5012547;28;20136;-64
2021/12/01 04:24:16;;;;;;;1.60;1.42;;;;;;;-10.88;91.18;98615.41;5013116;28;20107;-64
2021/12/01 04:26:43;;;;;;;1.45;1.35;;;;;;;-10.85;90.78;98616.22;5012564;28;20136;-64
2021/12/01 04:29:10;;;;;;;2.17;1.58;;;;;;;-10.91;90.99;98606.19;5012590;28;20052;-64
2021/12/01 04:31:40;;;;;;;2.15;1.23;;;;;;;-10.89;90.88;98612.06;5011793;28;20121;-64
2021/12/01 04:34:08;;;;;;;3.05;1.80;;;;;;;-10.98;91.02;98612.91;5012321;28;20077;-64
2021/12/01 04:36:37;;;;;;;5.90;2.55;;;;;;;-10.98;90.79;98602.84;5012313;28;20149;-62
2021/12/01 04:39:09;;;;;;;1.58;1.48;;;;;;;-10.86;90.55;98607.03;5012459;28;20049;-64
2021/12/01 04:41:39;;;;;;;1.40;1.30;;;;;;;-10.79;89.92;98603.66;5011891;28;20081;-63
2021/12/01 04:44:09;;;;;;;2.85;1.70;;;;;;;-10.88;90.21;98605.34;5012230;28;20076;-64
2021/12/01 04:46:41;;;;;;;2.13;1.50;;;;;;;-10.95;90.43;98596.97;5012312;28;20124;-64
2021/12/01 04:49:09;;;;;;;1.35;1.25;;;;;;;-10.84;90.05;98592.78;5012179;28;20126;-64
2021/12/01 04:51:36;;;;;;;1.55;1.45;;;;;;;-10.97;90.11;98596.16;5011925;28;20053;-64
2021/12/01 04:54:03;;;;;;;1.70;1.30;;;;;;;-10.93;90.55;98597.81;5011772;28;20076;-63
2021/12/01 04:56:32;;;;;;;1.02;1.02;;;;;;;-10.93;89.99;98599.50;5012038;28;20591;-64
2021/12/01 04:58:59;;;;;;;1.23;1.13;;;;;;;-11.16;90.80;98597.88;5012213;28;20483;-63
2021/12/01 05:01:26;;;;;;;2.40;1.10;;;;;;;-10.96;90.07;98597.84;5012175;28;20145;-64
2021/12/01 05:03:53;;;;;;;1.45;1.27;;;;;;;-11.05;90.08;98601.19;5011986;28;20133;-63
2021/12/01 05:06:22;;;;;;;1.40;1.30;;;;;;;-11.17;90.33;98603.75;5012258;28;20120;-64
2021/12/01 05:08:49;;;;;;;1.48;1.38;;;;;;;-11.27;90.92;98589.56;5012280;28;20042;-65
2021/12/01 05:11:16;;;;;;;1.45;1.35;;;;;;;-11.04;90.34;98592.84;5011838;28;20460;-64
2021/12/01 05:13:44;;;;;;;1.60;1.50;;;;;;;-11.13;90.43;98599.56;5011662;28;20502;-63
2021/12/01 05:16:11;;;;;;;1.30;1.20;;;;;;;-10.98;89.75;98595.31;5011913;28;20093;-65
2021/12/01 05:18:39;;;;;;;1.70;1.60;;;;;;;-11.04;89.30;98605.41;5012172;28;20480;-64
2021/12/01 05:21:06;;;;;;;2.05;1.63;;;;;;;-10.96;89.55;98595.31;5012055;28;20132;-64
2021/12/01 05:23:33;;;;;;;4.32;1.45;;;;;;;-11.07;89.35;98605.41;5011949;28;20048;-64
2021/12/01 05:25:59;;;;;;;;;;;;;;;-11.18;89.30;98592.03;5012991;28;20050;-64
2021/12/01 05:28:27;;;;;;;2.03;1.60;;;;;;;-11.16;89.64;98599.56;5011984;28;19921;-64
2021/12/01 05:30:55;;;;;;;1.35;1.25;;;;;;;-11.12;90.03;98593.69;5011777;28;20046;-64
2021/12/01 05:33:22;;;;;;;1.00;1.00;;;;;;;-11.06;89.83;98601.22;5011938;28;20127;-63
2021/12/01 05:35:49;;;;;;;1.60;1.45;;;;;;;-11.12;89.73;98607.09;5011921;28;20133;-64
2021/12/01 05:38:17;;;;;;;1.08;1.08;;;;;;;-11.05;90.17;98602.88;5011946;28;20046;-63
2021/12/01 05:40:46;;;;;;;1.70;1.60;;;;;;;-11.12;90.37;98601.22;5011870;28;20050;-64
2021/12/01 05:43:13;;;;;;;1.10;1.10;;;;;;;-11.08;89.46;98603.72;5014131;28;20104;-64
2021/12/01 05:45:40;;;;;;;1.70;1.60;;;;;;;-11.13;89.95;98609.59;5015361;28;20466;-64
2021/12/01 05:48:08;;;;;;;2.35;1.85;;;;;;;-11.14;90.26;98613.78;5015277;28;20049;-64
2021/12/01 05:50:36;;;;;;;1.60;1.50;;;;;;;-11.26;90.51;98609.63;5015344;28;20092;-63
2021/12/01 05:53:03;;;;;;;4.28;1.85;;;;;;;-11.16;90.40;98607.09;5015039;28;20499;-63
2021/12/01 05:55:30;;;;;;;2.20;2.00;;;;;;;-11.05;90.01;98603.69;5014949;28;20053;-64
2021/12/01 05:57:57;;;;;;;1.65;1.42;;;;;;;-11.08;89.36;98603.72;5015099;28;20555;-64
2021/12/01 06:00:25;;;;;;;1.75;1.55;;;;;;;-11.13;89.65;98602.91;5014727;28;20156;-64
2021/12/01 06:02:52;;;;;;;1.95;1.75;;;;;;;-11.22;89.14;98593.72;5014943;28;20136;-64
2021/12/01 06:05:22;;;;;;;4.70;1.65;;;;;;;-11.35;89.73;98599.59;5015024;28;20123;-64
2021/12/01 06:07:49;;;;;;;1.88;1.58;;;;;;;-11.32;90.20;98597.09;5014849;28;20136;-64
2021/12/01 06:10:17;;;;;;;1.23;1.17;;;;;;;-11.19;89.81;98585.34;5015078;28;20132;-66
2021/12/01 06:12:45;;;;;;;1.50;1.40;;;;;;;-11.28;90.33;98586.19;5014804;28;20064;-64
2021/12/01 06:15:16;;;;;;;1.40;1.30;;;;;;;-11.25;90.17;98580.31;5014568;28;20042;-64
2021/12/01 06:17:43;;;;;;;1.55;1.45;;;;;;;-11.28;90.63;98578.66;5014306;28;20141;-64
2021/12/01 06:20:11;;;;;;;0.88;0.88;;;;;;;-11.18;90.13;98577.78;5014650;28;20085;-67
2021/12/01 06:22:40;;;;;;;1.75;1.35;;;;;;;-11.08;89.06;98573.56;5014460;28;20045;-64
2021/12/01 06:25:08;;;;;;;3.63;1.45;;;;;;;-11.21;89.93;98579.47;5014935;28;20141;-67
2021/12/01 06:27:35;;;;;;;2.90;1.63;;;;;;;-11.22;90.18;98570.28;5014789;28;20141;-64
2021/12/01 06:30:02;;;;;;;2.53;1.55;;;;;;;-11.21;89.94;98580.31;5014526;28;20140;-65
2021/12/01 06:32:29;;;;;;;2.00;1.80;;;;;;;-11.16;89.49;98585.31;5014280;28;20052;-63
2021/12/01 06:34:56;;;;;;;2.13;1.58;;;;;;;-11.31;90.15;98585.34;5013463;28;20064;-64
2021/12/01 06:37:23;;;;;;;1.55;1.42;;;;;;;-11.27;90.21;98587.03;5014457;28;20042;-64
2021/12/01 06:39:52;;;;;;;1.83;1.40;;;;;;;-11.31;90.38;98588.69;5014319;28;20053;-64
2021/12/01 06:42:20;;;;;;;0.93;0.93;;;;;;;-11.14;89.34;98586.16;5014429;28;20042;-65
2021/12/01 06:44:47;;;;;;;2.20;1.55;;;;;;;-11.31;89.74;98581.16;5014329;28;20168;-64
2021/12/01 06:47:15;;;;;;;1.42;1.27;;;;;;;-11.43;90.53;98586.19;5014169;28;20241;-64
2021/12/01 06:49:45;;;;;;;3.78;1.58;;;;;;;-11.56;91.09;98587.88;5014263;28;20049;-64
2021/12/01 06:52:12;;;;;;;2.65;1.65;;;;;;;-11.43;90.81;98591.22;5014041;28;20054;-64
2021/12/01 06:54:39;;;;;;;;;;;;;;;-11.43;90.15;98586.19;5013603;28;20144;-63
2021/12/01 06:57:08;;;;;;;1.50;1.40;;;;;;;-11.30;90.09;98589.53;5014167;28;20019;-65
2021/12/01 06:59:35;;;;;;;2.22;1.67;;;;;;;-11.48;90.04;98586.22;5013855;28;20137;-63
2021/12/01 07:02:02;;;;;;;1.83;1.25;;;;;;;-11.57;90.45;98590.41;5013624;28;20150;-64
2021/12/01 07:04:30;;;;;;;1.40;1.30;;;;;;;-11.34;89.54;98598.75;5013740;28;20129;-64
2021/12/01 07:06:58;;;;;;;1.50;1.40;;;;;;;-11.41;89.66;98592.91;5013912;28;20052;-64
2021/12/01 07:09:25;;;;;;;1.23;1.20;;;;;;;-11.36;90.24;98594.56;5013931;28;20046;-64
2021/12/01 07:11:53;;;;;;;1.58;1.48;;;;;;;-11.51;89.98;98593.75;5013679;28;20046;-63
2021/12/01 07:14:22;;;;;;;3.92;2.78;;;;;;;-11.59;90.88;98594.59;5013604;28;20137;-64
2021/12/01 07:16:49;;;;;;;2.58;1.60;;;;;;;-11.46;90.02;98604.63;5013629;28;20555;-64
2021/12/01 07:19:16;;;;;;;5.90;2.33;;;;;;;-11.51;89.78;98597.94;5013585;28;20136;-64
2021/12/01 07:21:43;;;;;;;3.78;1.73;;;;;;;-11.56;90.66;98607.13;5013728;28;20077;-64
2021/12/01 07:24:10;;;;;;;2.35;1.88;;;;;;;-11.70;90.72;98605.47;5014032;28;20137;-64
2021/12/01 07:26:37;;;;;;;1.05;0.88;;;;;;;-11.46;90.50;98603.78;5013549;28;20141;-64
2021/12/01 07:29:05;;;;;;;1.70;1.50;;;;;;;-11.40;89.98;98606.31;5013839;28;20391;-63
2021/12/01 07:31:33;;;;;;;;;;;;;;;-11.37;89.19;98600.44;5013861;28;20060;-64
2021/12/01 07:34:00;;;;;;;1.90;1.65;;;;;;;-11.52;89.99;98597.09;5013167;28;20381;-66
2021/12/01 07:36:27;;;;;;;1.73;1.55;;;;;;;-11.43;89.55;98607.16;5013611;28;20050;-64
2021/12/01 07:38:54;;;;;;;2.33;1.58;;;;;;;-11.42;89.41;98605.47;5013321;28;20506;-67
2021/12/01 07:41:21;;;;;;;5.28;1.60;;;;;;;-11.69;90.18;98597.09;5013367;28;20066;-64
2021/12/01 07:43:48;;;;;;;;;;;;;;;-11.54;90.50;98606.31;5013482;28;20129;-66
2021/12/01 07:46:16;;;;;;;1.50;1.40;;;;;;;-11.36;89.24;98599.59;5013121;28;20410;-64
2021/12/01 07:48:44;;;;;;;1.50;1.40;;;;;;;-11.53;89.34;98594.59;5013388;28;20124;-67
2021/12/01 07:51:12;;;;;;;1.60;1.50;;;;;;;-11.50;90.08;98602.97;5013259;28;20149;-64
2021/12/01 07:53:39;;;;;;;1.00;1.00;;;;;;;-11.39;89.12;98607.97;5013014;28;20100;-63
2021/12/01 07:56:06;;;;;;;2.47;1.77;;;;;;;-11.60;89.50;98608.81;5013332;28;20518;-67
2021/12/01 07:58:33;;;;;;;;;;;;;;;-11.62;90.68;98601.28;5013355;28;20056;-67
2021/12/01 08:01:00;;;;;;;1.52;1.40;;;;;;;-11.55;89.32;98602.13;5013083;28;20019;-66
2021/12/01 08:03:27;;;;;;;;;;;;;;;-11.57;90.21;98600.47;5013668;28;20447;-66
2021/12/01 08:05:55;;;;;;;1.40;1.30;;;;;;;-11.69;90.68;98602.13;5011915;28;20367;-66
2021/12/01 08:08:23;;;;;;;0.95;0.93;;;;;;;-11.55;90.26;98601.31;5012838;28;20140;-66
2021/12/01 08:10:49;;;;;;;;;;;;;;;-11.57;90.05;98600.47;5013196;28;20049;-68
2021/12/01 08:13:16;;;;;;;3.13;1.63;;;;;;;-11.59;89.97;98604.63;5012360;28;20280;-64
2021/12/01 08:15:45;;;;;;;1.77;1.38;;;;;;;-11.54;90.30;98607.97;5012726;28;20448;-66
2021/12/01 08:18:12;;;;;;;2.90;1.50;;;;;;;-11.43;89.77;98606.28;5012669;28;20050;-63
2021/12/01 08:20:39;;;;;;;1.98;1.55;;;;;;;-11.44;90.08;98612.16;5012677;28;20136;-66
2021/12/01 08:23:07;;;;;;;2.70;1.95;;;;;;;-11.50;89.26;98604.66;5012576;28;20065;-66
2021/12/01 08:25:35;;;;;;;3.65;1.70;;;;;;;-11.52;89.79;98598.78;5013165;28;20140;-65
2021/12/01 08:28:02;;;;;;;3.83;1.58;;;;;;;-11.55;89.53;98594.59;5012673;28;20542;-65
2021/12/01 08:30:30;;;;;;;6.55;2.17;;;;;;;-11.64;89.75;98597.94;5012797;28;20045;-63
2021/12/01 08:32:57;;;;;;;1.90;1.77;;;;;;;-11.62;90.81;98595.44;5012419;28;20049;-66
2021/12/01 08:35:25;;;;;;;1.90;1.80;;;;;;;-11.50;90.16;98599.63;5012364;28;20145;-65
2021/12/01 08:37:52;;;;;;;3.92;2.30;;;;;;;-11.63;90.55;98603.81;5012324;28;20042;-66
2021/12/01 08:40:20;;;;;;;2.95;1.65;;;;;;;-11.49;89.81;98603.78;5012499;28;20137;-66
2021/12/01 08:42:47;;;;;;;2.60;1.67;;;;;;;-11.52;90.11;98607.16;5012290;28;20133;-67
2021/12/01 08:45:15;;;;;;;3.35;1.58;;;;;;;-11.41;89.49;98604.63;5012278;28;20053;-66
2021/12/01 08:47:42;;;;;;;2.40;1.73;;;;;;;-11.70;89.85;98605.47;5012598;28;20073;-64
2021/12/01 08:50:11;;;;;;;2.00;1.60;;;;;;;-11.68;89.74;98605.50;5012600;28;20149;-63
2021/12/01 08:52:38;;;;;;;3.80;2.45;;;;;;;-11.54;89.53;98602.97;5012005;28;20492;-64
2021/12/01 08:55:06;;;;;;;1.75;1.63;;;;;;;-11.45;89.15;98605.47;5011923;28;20149;-64
2021/12/01 08:57:35;;;;;;;1.58;1.45;;;;;;;-11.66;89.85;98596.25;5012412;28;20136;-64
2021/12/01 09:00:02;;;;;;;1.77;1.65;;;;;;;-11.62;90.23;98602.97;5012209;28;20575;-64
2021/12/01 09:02:29;;;;;;;2.55;1.33;;;;;;;-11.51;89.65;98602.94;5012335;28;20085;-64
2021/12/01 09:04:56;;;;;;;3.65;2.03;;;;;;;-11.62;89.34;98598.78;5012253;28;20057;-64
2021/12/01 09:07:23;;;;;;;5.25;2.13;;;;;;;-11.67;89.48;98602.97;5012241;28;20054;-64
2021/12/01 09:09:50;;;;;;;3.33;1.92;;;;;;;-11.48;89.10;98603.81;5012139;28;20483;-64
2021/12/01 09:12:18;;;;;;;2.42;1.80;;;;;;;-11.71;90.37;98598.78;5011906;28;20579;-64
2021/12/01 09:14:46;;;;;;;2.80;1.70;;;;;;;-11.67;90.09;98595.44;5012037;28;20108;-64
2021/12/01 09:17:13;;;;;;;2.70;2.05;;;;;;;-11.56;89.37;98600.44;5013511;28;20539;-63
2021/12/01 09:19:40;;;;;;;4.63;2.20;;;;;;;-11.40;88.89;98598.78;5015954;28;20045;-65
2021/12/01 09:22:07;;;;;;;1.38;1.27;;;;;;;-11.36;89.12;98592.91;5015825;28;20544;-64
2021/12/01 09:24:35;;;;;;;1.20;1.20;;;;;;;-11.41;89.09;98605.44;5016708;28;20048;-65
2021/12/01 09:27:02;;;;;;;1.77;1.60;;;;;;;-11.42;89.48;98607.97;5015882;28;20556;-66
2021/12/01 09:29:29;;;;;;;1.88;1.58;;;;;;;-11.41;89.51;98607.94;5015644;28;20081;-68
2021/12/01 09:31:59;;;;;;;1.77;1.67;;;;;;;-11.44;88.74;98612.16;5015551;28;20493;-64
2021/12/01 09:34:27;;;;;;;2.03;1.73;;;;;;;-11.51;89.64;98605.47;5015596;28;20073;-67
2021/12/01 09:36:53;;;;;;;;;;;;;;;-11.60;89.80;98606.31;5015988;28;20373;-66
2021/12/01 09:39:21;;;;;;;3.13;1.50;;;;;;;-11.62;89.61;98601.28;5015763;28;19921;-68
2021/12/01 09:41:48;;;;;;;;;;;;;;;-11.44;89.23;98602.94;5015823;28;20144;-65
2021/12/01 09:44:15;;;;;;;2.42;1.85;;;;;;;-11.38;89.88;98607.13;5015438;28;20028;-67
2021/12/01 09:46:43;;;;;;;1.63;1.52;;;;;;;-11.28;88.75;98606.25;5015415;28;20049;-66
2021/12/01 09:49:11;;;;;;;2.67;1.63;;;;;;;-11.42;89.03;98602.94;5015268;28;20149;-66
2021/12/01 09:51:38;;;;;;;1.77;1.63;;;;;;;-11.34;88.93;98605.47;5015313;28;20499;-66
2021/12/01 09:54:06;;;;;;;3.20;2.08;;;;;;;-11.48;89.87;98602.94;5015196;28;20058;-67
2021/12/01 09:56:33;;;;;;;1.88;1.63;;;;;;;-11.58;89.69;98606.28;5015348;28;20137;-63
2021/12/01 09:59:01;;;;;;;4.07;2.05;;;;;;;-11.56;89.87;98602.13;5014964;28;20492;-66
2021/12/01 10:01:29;;;;;;;4.00;1.92;;;;;;;-11.43;89.83;98601.25;5015178;28;20088;-64
2021/12/01 10:03:56;;;;;;;5.97;2.30;;;;;;;-11.65;90.54;98603.81;5014998;28;20079;-66
2021/12/01 10:06:26;;;;;;;2.33;1.92;;;;;;;-11.55;89.93;98608.81;5015162;28;20072;-66
2021/12/01 10:08:56;;;;;;;3.45;1.95;;;;;;;-11.56;90.59;98614.66;5014922;28;20077;-64
2021/12/01 10:11:25;;;;;;;4.95;2.17;;;;;;;-11.55;90.65;98617.19;5014903;28;20046;-66
2021/12/01 10:13:56;;;;;;;1.92;1.67;;;;;;;-11.43;89.64;98613.81;5014789;28;20133;-65
2021/12/01 10:16:25;;;;;;;2.80;1.73;;;;;;;-11.28;87.98;98611.28;5014795;28;20133;-65
2021/12/01 10:18:55;;;;;;;1.83;1.65;;;;;;;-11.41;89.55;98615.47;5014798;28;20145;-66
2021/12/01 10:21:24;;;;;;;2.53;2.00;;;;;;;-11.37;88.40;98608.81;5014729;28;20042;-65
2021/12/01 10:23:55;;;;;;;2.58;1.92;;;;;;;-11.36;88.32;98602.09;5014623;28;20046;-66
2021/12/01 10:26:25;;;;;;;2.25;1.70;;;;;;;-11.25;89.10;98602.91;5014966;28;20076;-63
2021/12/01 10:28:54;;;;;;;2.20;2.00;;;;;;;-11.35;88.89;98609.66;5013303;28;20050;-66
2021/12/01 10:31:35;;;;;;;3.38;2.40;;;;;;;-11.45;89.32;98618.03;5014451;28;20162;-63
2021/12/01 10:34:23;;;;;;;6.45;1.98;;;;;;;-11.36;89.08;98612.97;5014421;28;20080;-66
2021/12/01 10:36:52;;;;;;;4.53;2.60;;;;;;;-11.29;88.45;98612.13;5014490;28;20050;-65
2021/12/01 10:39:23;;;;;;;2.13;1.60;;;;;;;-11.40;88.80;98616.34;5014392;28;20134;-66
2021/12/01 10:41:50;;;;;;;7.97;1.77;;;;;;;-11.53;89.70;98605.47;5014655;28;20052;-66
2021/12/01 10:44:19;;;;;;;6.85;2.30;;;;;;;-11.45;89.57;98607.97;5014369;28;20490;-66
2021/12/01 10:46:49;;;;;;;3.22;2.35;;;;;;;-11.68;90.55;98597.97;5014463;28;20050;-66
2021/12/01 10:49:18;;;;;;;3.88;2.20;;;;;;;-11.57;89.98;98597.94;5014477;28;20056;-62
2021/12/01 10:51:46;;;;;;;2.20;1.85;;;;;;;-11.50;89.53;98597.94;5014112;28;20452;-62
2021/12/01 10:54:19;;;;;;;3.70;2.10;;;;;;;-11.59;90.66;98595.44;5013668;28;20081;-64
2021/12/01 10:57:08;;;;;;;3.60;2.15;;;;;;;-11.61;90.84;98602.13;5014038;28;20053;-63
2021/12/01 10:59:44;;;;;;;2.88;2.20;;;;;;;-11.62;90.82;98606.31;5013914;28;20133;-63
2021/12/01 11:02:12;;;;;;;2.20;1.75;;;;;;;-11.51;90.32;98602.94;5013800;28;20412;-63
2021/12/01 11:04:44;;;;;;;3.25;2.28;;;;;;;-11.47;90.61;98607.97;5014175;28;20145;-63
2021/12/01 11:07:25;;;;;;;2.85;2.10;;;;;;;-11.46;89.16;98601.28;5014023;28;20050;-64
2021/12/01 11:10:10;;;;;;;3.58;1.90;;;;;;;-11.32;89.80;98607.13;5013988;28;20141;-64
2021/12/01 11:12:39;;;;;;;3.85;2.03;;;;;;;-11.36;88.85;98595.41;5013680;28;20124;-64
2021/12/01 11:15:20;;;;;;;2.80;1.98;;;;;;;-11.50;89.90;98599.63;5013619;28;20065;-67
2021/12/01 11:17:47;;;;;;;4.35;2.33;;;;;;;-11.44;89.95;98597.94;5013486;28;20136;-63
2021/12/01 11:20:33;;;;;;;3.83;2.33;;;;;;;-11.45;89.56;98597.94;5013592;28;20056;-65
2021/12/01 11:23:13;;;;;;;7.10;2.05;;;;;;;-11.60;90.91;98598.78;5013343;28;20131;-64
2021/12/01 11:25:40;;;;;;;4.32;1.73;;;;;;;-11.60;90.31;98598.78;5014367;28;20128;-64
2021/12/01 11:28:13;;;;;;;3.50;2.03;;;;;;;-11.62;89.84;98593.75;5013562;28;20136;-64
2021/12/01 11:30:41;;;;;;;3.33;1.85;;;;;;;-11.31;89.78;98591.22;5013352;28;20053;-63
2021/12/01 11:33:11;;;;;;;2.08;1.80;;;;;;;-11.38;88.71;98597.06;5013124;28;20065;-64
2021/12/01 11:35:38;;;;;;;7.40;2.70;;;;;;;-11.65;90.00;98591.25;5013310;28;20054;-63
2021/12/01 11:38:06;;;;;;;2.25;1.95;;;;;;;-11.60;90.55;98596.28;5013236;28;20061;-64